Metar - Info de Aeroporto     LIEE Cagliari Elmas Airport
Temperatura
28°C Temperatura
22°C Ptº Orvalho
70% Humidade



Vento
13 KM/H
8 MPH
4 M/S
7 NÓS



170°
Sul
Condições Atuais

Pouco Nublado Pouco Nublado
Pressão 1012.92 (hPa) - 29.91 (inHg)
Visibilidade 6.2 (milha) - 10 (km)
Aeroporto
Código-Aeropoto LIEE

Localização: Cagliari Elmas Airport
Distância: 14 (km)

Metar:
LIEE 171350Z 17007KT 9999 FEW050 28/22 Q1013

Hora: 17-09-2021 15:50 CEST